createdAt,value
2022-11-21T00:01:17.441Z,8.60
2022-11-21T00:03:45.219Z,8.93
2022-11-21T00:06:12.966Z,9.43
2022-11-21T00:08:40.683Z,8.70
2022-11-21T00:11:08.381Z,9.00
2022-11-21T00:13:36.170Z,9.33
2022-11-21T00:16:05.201Z,7.33
2022-11-21T00:18:35.809Z,10.20
2022-11-21T00:21:07.591Z,8.17
2022-11-21T00:23:35.325Z,8.10
2022-11-21T00:26:05.418Z,9.23
2022-11-21T00:28:33.339Z,9.80
2022-11-21T00:31:01.046Z,9.77
2022-11-21T00:33:28.794Z,9.00
2022-11-21T00:35:57.864Z,9.70
2022-11-21T00:38:25.542Z,9.40
2022-11-21T00:40:53.209Z,9.70
2022-11-21T00:43:20.915Z,10.67
2022-11-21T00:45:48.599Z,9.53
2022-11-21T00:48:16.291Z,10.03
2022-11-21T00:50:44.038Z,11.13
2022-11-21T00:53:13.095Z,9.47
2022-11-21T00:55:40.811Z,9.13
2022-11-21T00:58:08.590Z,9.93
2022-11-21T01:00:36.415Z,9.73
2022-11-21T01:03:04.176Z,9.47
2022-11-21T01:05:33.136Z,8.60
2022-11-21T01:08:00.886Z,8.17
2022-11-21T01:10:29.905Z,8.80
2022-11-21T01:12:57.995Z,10.33
2022-11-21T01:15:25.686Z,8.67
2022-11-21T01:17:53.421Z,9.20
2022-11-21T01:20:21.128Z,10.07
2022-11-21T01:22:48.913Z,9.80
2022-11-21T01:25:16.873Z,9.60
2022-11-21T01:27:45.939Z,10.07
2022-11-21T01:30:14.710Z,10.67
2022-11-21T01:32:42.361Z,9.73
2022-11-21T01:35:10.494Z,11.17
2022-11-21T01:37:38.159Z,11.90
2022-11-21T01:40:06.609Z,9.80
2022-11-21T01:42:52.980Z,10.07
2022-11-21T01:45:58.025Z,10.20
2022-11-21T01:48:30.487Z,10.87
2022-11-21T01:51:02.143Z,12.57
2022-11-21T01:53:30.261Z,10.73
2022-11-21T01:55:58.653Z,10.23
2022-11-21T01:58:30.052Z,11.50
2022-11-21T02:00:57.988Z,11.60
2022-11-21T02:03:30.006Z,11.10
2022-11-21T02:05:58.256Z,10.23
2022-11-21T02:08:27.712Z,10.23
2022-11-21T02:11:04.943Z,10.30
2022-11-21T02:13:33.976Z,9.50
2022-11-21T02:16:02.039Z,11.93
2022-11-21T02:18:29.774Z,10.57
2022-11-21T02:21:04.211Z,10.87
2022-11-21T02:23:38.769Z,11.40
2022-11-21T02:26:07.894Z,11.67
2022-11-21T02:28:35.739Z,11.83
2022-11-21T02:31:04.535Z,10.27
2022-11-21T02:33:32.257Z,12.03
2022-11-21T02:36:01.427Z,12.27
2022-11-21T02:38:33.217Z,10.53
2022-11-21T02:41:07.932Z,11.53
2022-11-21T02:43:44.280Z,11.07
2022-11-21T02:46:12.044Z,11.83
2022-11-21T02:48:40.058Z,11.30
2022-11-21T02:51:08.510Z,12.70
2022-11-21T02:53:36.431Z,11.90
2022-11-21T02:56:04.418Z,12.60
2022-11-21T02:58:32.488Z,12.70
2022-11-21T03:01:03.892Z,14.60
2022-11-21T03:03:31.620Z,12.33
2022-11-21T03:05:59.402Z,13.97
2022-11-21T03:08:27.162Z,12.13
2022-11-21T03:10:54.837Z,12.20
2022-11-21T03:13:22.780Z,12.77
2022-11-21T03:15:50.493Z,12.97
2022-11-21T03:18:19.466Z,12.87
2022-11-21T03:20:47.175Z,13.67
2022-11-21T03:23:14.892Z,13.43
2022-11-21T03:25:42.660Z,13.17
2022-11-21T03:28:10.280Z,13.33
2022-11-21T03:30:38.052Z,11.17
2022-11-21T03:33:05.709Z,13.00
2022-11-21T03:35:34.944Z,13.03
2022-11-21T03:38:02.702Z,13.90
2022-11-21T03:40:30.546Z,13.23
2022-11-21T03:42:58.241Z,12.60
2022-11-21T03:45:25.946Z,14.47
2022-11-21T03:47:53.635Z,13.33
2022-11-21T03:50:21.589Z,13.03
2022-11-21T03:52:51.384Z,13.43
2022-11-21T03:55:19.060Z,15.30
2022-11-21T03:57:46.847Z,13.00
2022-11-21T04:00:15.926Z,13.53
2022-11-21T04:02:45.021Z,12.70
2022-11-21T04:05:14.019Z,13.63
2022-11-21T04:07:41.759Z,14.00
2022-11-21T04:10:11.375Z,13.23
2022-11-21T04:12:39.168Z,14.27
2022-11-21T04:15:13.173Z,15.17
2022-11-21T04:17:41.442Z,16.43
2022-11-21T04:20:12.814Z,14.80
2022-11-21T04:22:40.599Z,17.03
2022-11-21T04:25:09.028Z,16.70
2022-11-21T04:27:38.133Z,18.17
2022-11-21T04:30:07.110Z,16.60
2022-11-21T04:32:34.857Z,15.87
2022-11-21T04:35:02.596Z,16.10
2022-11-21T04:37:30.314Z,16.43
2022-11-21T04:39:57.997Z,14.53
2022-11-21T04:42:25.848Z,14.13
2022-11-21T04:44:54.847Z,14.57
2022-11-21T04:47:22.546Z,15.07
2022-11-21T04:49:50.208Z,14.60
2022-11-21T04:52:18.021Z,14.27
2022-11-21T04:54:45.762Z,14.50
2022-11-21T04:57:13.489Z,12.63
2022-11-21T04:59:41.189Z,15.30
2022-11-21T05:02:11.385Z,14.20
2022-11-21T05:04:40.125Z,14.77
2022-11-21T05:07:07.869Z,14.87
2022-11-21T05:09:35.624Z,14.77
2022-11-21T05:12:21.188Z,13.23
2022-11-21T05:14:48.904Z,15.67
2022-11-21T05:17:17.994Z,14.40
2022-11-21T05:19:45.644Z,14.93
2022-11-21T05:22:13.394Z,14.30
2022-11-21T05:24:41.037Z,13.37
2022-11-21T05:27:08.782Z,14.13
2022-11-21T05:29:36.751Z,14.83
2022-11-21T05:32:04.581Z,15.63
2022-11-21T05:34:33.656Z,16.53
2022-11-21T05:37:01.418Z,14.83
2022-11-21T05:39:29.236Z,13.63
2022-11-21T05:42:01.470Z,15.40
2022-11-21T05:44:30.227Z,15.60
2022-11-21T05:46:58.225Z,14.77
2022-11-21T05:49:25.916Z,15.17
2022-11-21T05:51:55.026Z,15.23
2022-11-21T05:54:22.632Z,15.60
2022-11-21T05:56:50.298Z,16.13
2022-11-21T05:59:17.993Z,13.97
2022-11-21T06:02:03.522Z,15.33
2022-11-21T06:04:31.573Z,14.77
2022-11-21T06:07:02.849Z,14.23
2022-11-21T06:09:31.716Z,15.60
2022-11-21T06:11:59.459Z,14.17
2022-11-21T06:14:32.299Z,15.47
2022-11-21T06:17:00.058Z,15.70
2022-11-21T06:19:27.754Z,16.63
2022-11-21T06:21:55.516Z,14.17
2022-11-21T06:24:25.092Z,15.17
2022-11-21T06:26:53.166Z,17.17
2022-11-21T06:29:22.149Z,14.20
2022-11-21T06:31:50.699Z,14.43
2022-11-21T06:34:18.564Z,15.40
2022-11-21T06:36:46.536Z,15.43
2022-11-21T06:39:14.229Z,16.30
2022-11-21T06:41:43.293Z,18.23
2022-11-21T06:44:11.001Z,15.87
2022-11-21T06:46:38.841Z,15.70
2022-11-21T06:49:06.778Z,15.37
2022-11-21T06:51:34.527Z,16.50
2022-11-21T06:54:02.434Z,14.47
2022-11-21T06:56:32.560Z,15.83
2022-11-21T06:59:03.749Z,15.03
2022-11-21T07:01:31.448Z,14.37
2022-11-21T07:03:59.177Z,14.30
2022-11-21T07:06:27.202Z,14.37
2022-11-21T07:11:43.362Z,14.30
2022-11-21T07:14:11.692Z,13.07
2022-11-21T07:16:39.448Z,14.73
2022-11-21T07:19:07.162Z,15.53
2022-11-21T07:21:34.916Z,14.13
2022-11-21T07:24:02.774Z,12.27
2022-11-21T07:26:30.448Z,11.70
2022-11-21T07:28:59.461Z,13.37
2022-11-21T07:31:28.472Z,13.03
2022-11-21T07:33:56.169Z,14.27
2022-11-21T07:36:23.827Z,14.27
2022-11-21T07:38:51.518Z,15.03
2022-11-21T07:41:19.218Z,14.93
2022-11-21T07:43:49.192Z,15.83
2022-11-21T07:46:16.870Z,16.53
2022-11-21T07:48:46.233Z,16.73
2022-11-21T07:51:13.919Z,15.73
2022-11-21T07:53:42.016Z,15.03
2022-11-21T07:56:10.324Z,15.67
2022-11-21T07:58:38.030Z,15.83
2022-11-21T08:01:06.672Z,16.83
2022-11-21T08:03:34.813Z,14.27
2022-11-21T08:06:04.795Z,14.90
2022-11-21T08:08:32.758Z,17.90
2022-11-21T08:11:05.720Z,17.47
2022-11-21T08:13:33.551Z,18.77
2022-11-21T08:16:04.294Z,22.20
2022-11-21T08:18:32.714Z,21.33
2022-11-21T08:21:02.349Z,18.33
2022-11-21T08:23:32.420Z,18.60
2022-11-21T08:26:00.244Z,16.43
2022-11-21T08:28:28.085Z,16.77
2022-11-21T08:30:55.728Z,17.10
2022-11-21T08:33:23.398Z,15.77
2022-11-21T08:35:51.041Z,17.30
2022-11-21T08:38:18.763Z,15.67
2022-11-21T08:41:07.788Z,15.90
2022-11-21T08:43:35.453Z,17.63
2022-11-21T08:46:03.197Z,21.03
2022-11-21T08:48:31.007Z,16.50
2022-11-21T08:50:58.749Z,17.27
2022-11-21T08:53:26.835Z,15.43
2022-11-21T08:56:00.105Z,16.03
2022-11-21T08:58:31.053Z,13.60
2022-11-21T09:01:00.088Z,13.87
2022-11-21T09:03:31.121Z,15.53
2022-11-21T09:05:59.776Z,14.17
2022-11-21T09:08:28.018Z,13.93
2022-11-21T09:10:57.016Z,16.10
2022-11-21T09:13:24.696Z,12.90
2022-11-21T09:16:10.252Z,15.03
2022-11-21T09:18:38.936Z,14.17
2022-11-21T09:21:06.609Z,12.07
2022-11-21T09:23:34.307Z,14.60
2022-11-21T09:26:03.304Z,10.20
2022-11-21T09:28:30.977Z,12.03
2022-11-21T09:30:59.159Z,11.50
2022-11-21T09:33:26.934Z,13.27
2022-11-21T09:35:54.669Z,10.77
2022-11-21T09:38:24.203Z,12.23
2022-11-21T09:40:52.295Z,12.53
2022-11-21T09:43:35.933Z,10.43
2022-11-21T09:46:10.908Z,9.47
2022-11-21T09:48:48.739Z,12.37
2022-11-21T09:51:19.110Z,10.47
2022-11-21T09:53:56.277Z,12.13
2022-11-21T09:56:24.876Z,10.83
2022-11-21T09:59:08.379Z,8.77
2022-11-21T10:01:37.467Z,8.97
2022-11-21T10:04:05.772Z,9.37
2022-11-21T10:06:40.104Z,8.67
2022-11-21T10:09:12.847Z,9.87
2022-11-21T10:12:11.198Z,8.80
2022-11-21T10:14:53.336Z,7.03
2022-11-21T10:17:27.971Z,8.33
2022-11-21T10:20:23.306Z,10.00
2022-11-21T10:23:05.389Z,9.07
2022-11-21T10:25:38.452Z,10.37
2022-11-21T10:28:12.017Z,7.93
2022-11-21T10:30:45.141Z,9.20
2022-11-21T10:33:17.488Z,8.77
2022-11-21T10:35:48.289Z,11.10
2022-11-21T10:38:22.262Z,9.23
2022-11-21T10:40:53.542Z,9.20
2022-11-21T10:43:51.071Z,9.10
2022-11-21T10:46:20.186Z,11.03
2022-11-21T10:48:56.319Z,9.07
2022-11-21T10:51:43.467Z,7.60
2022-11-21T10:54:30.492Z,9.17
2022-11-21T10:57:03.073Z,8.90
2022-11-21T10:59:31.726Z,11.17
2022-11-21T11:02:02.787Z,10.93
2022-11-21T11:04:36.901Z,10.30
2022-11-21T11:07:25.706Z,10.03
2022-11-21T11:09:54.484Z,8.67
2022-11-21T11:12:46.910Z,9.63
2022-11-21T11:15:20.199Z,11.60
2022-11-21T11:17:54.177Z,7.17
2022-11-21T11:20:35.316Z,7.87
2022-11-21T11:23:27.359Z,10.23
2022-11-21T11:25:56.511Z,9.63
2022-11-21T11:28:25.314Z,10.30
2022-11-21T11:30:55.871Z,9.40
2022-11-21T11:33:37.580Z,9.53
2022-11-21T11:36:15.144Z,10.17
2022-11-21T11:38:47.212Z,11.77
2022-11-21T11:41:53.879Z,13.17
2022-11-21T11:44:47.651Z,8.77
2022-11-21T11:47:32.246Z,9.13
2022-11-21T11:50:11.907Z,8.33
2022-11-21T11:52:47.725Z,8.33
2022-11-21T11:55:21.089Z,9.97
2022-11-21T11:57:51.636Z,9.97
2022-11-21T12:00:29.549Z,9.03
2022-11-21T12:03:02.372Z,6.70
2022-11-21T12:05:32.169Z,7.87
2022-11-21T12:11:30.951Z,7.20
2022-11-21T12:14:10.768Z,6.90
2022-11-21T12:16:41.165Z,8.00
2022-11-21T12:19:16.230Z,7.93
2022-11-21T12:21:46.073Z,7.70
2022-11-21T12:24:13.879Z,7.07
2022-11-21T12:26:55.056Z,7.83
2022-11-21T12:29:38.078Z,6.57
2022-11-21T12:32:29.155Z,5.47
2022-11-21T12:35:11.257Z,6.07
2022-11-21T12:37:49.085Z,4.50
2022-11-21T12:40:37.808Z,3.53
2022-11-21T12:43:19.491Z,5.63
2022-11-21T12:45:52.034Z,7.40
2022-11-21T12:48:43.794Z,5.03
2022-11-21T12:51:44.362Z,5.83
2022-11-21T12:54:34.725Z,4.73
2022-11-21T12:57:10.338Z,6.43
2022-11-21T12:59:53.139Z,6.97
2022-11-21T13:02:30.912Z,6.73
2022-11-21T13:05:00.883Z,6.70
2022-11-21T13:07:31.245Z,7.33
2022-11-21T13:10:03.496Z,6.50
2022-11-21T13:12:41.854Z,8.20
2022-11-21T13:15:25.480Z,8.60
2022-11-21T13:17:56.979Z,6.03
2022-11-21T13:20:31.418Z,8.43
2022-11-21T13:23:00.971Z,8.70
2022-11-21T13:25:40.874Z,10.07
2022-11-21T13:28:37.277Z,7.67
2022-11-21T13:31:31.038Z,8.20
2022-11-21T13:33:59.388Z,8.87
2022-11-21T13:36:40.121Z,6.03
2022-11-21T13:39:38.294Z,4.40
2022-11-21T13:42:26.982Z,6.90
2022-11-21T13:44:54.877Z,5.97
2022-11-21T13:48:10.205Z,7.87
2022-11-21T13:51:05.359Z,7.53
2022-11-21T13:53:57.540Z,6.90
2022-11-21T13:56:36.090Z,4.07
2022-11-21T13:59:23.507Z,5.67
2022-11-21T14:02:08.075Z,6.17
2022-11-21T14:05:12.455Z,6.20
2022-11-21T14:07:42.273Z,7.93
2022-11-21T14:10:31.132Z,4.93
2022-11-21T14:12:59.787Z,5.80
2022-11-21T14:15:36.080Z,3.13
2022-11-21T14:18:04.595Z,5.73
2022-11-21T14:20:49.971Z,6.80
2022-11-21T14:23:19.474Z,5.80
2022-11-21T14:25:50.402Z,7.67
2022-11-21T14:28:24.301Z,6.90
2022-11-21T14:30:59.212Z,6.73
2022-11-21T14:33:34.400Z,7.17
2022-11-21T14:36:08.196Z,6.10
2022-11-21T14:38:42.694Z,8.20
2022-11-21T14:41:28.684Z,7.23
2022-11-21T14:44:19.019Z,6.70
2022-11-21T14:46:48.947Z,5.60
2022-11-21T14:49:20.653Z,7.30
2022-11-21T14:51:50.199Z,6.73
2022-11-21T14:54:20.433Z,5.73
2022-11-21T14:56:49.598Z,5.87
2022-11-21T14:59:25.659Z,6.53
2022-11-21T15:02:00.750Z,4.07
2022-11-21T15:04:31.764Z,6.93
2022-11-21T15:07:00.198Z,6.03
2022-11-21T15:10:26.021Z,6.43
2022-11-21T15:12:24.827Z,4.93
2022-11-21T15:14:58.814Z,6.50
2022-11-21T15:17:28.511Z,5.50
2022-11-21T15:20:18.582Z,4.17
2022-11-21T15:22:48.140Z,4.80
2022-11-21T15:25:19.061Z,5.83
2022-11-21T15:27:47.812Z,4.40
2022-11-21T15:30:26.890Z,3.80
2022-11-21T15:33:17.546Z,5.37
2022-11-21T15:35:51.348Z,4.57
2022-11-21T15:38:22.929Z,4.87
2022-11-21T15:40:59.255Z,5.17
2022-11-21T15:43:39.017Z,5.60
2022-11-21T15:46:15.178Z,6.27
2022-11-21T15:48:47.123Z,5.73
2022-11-21T15:51:15.397Z,6.43
2022-11-21T15:53:43.277Z,5.93
2022-11-21T15:56:21.258Z,5.17
2022-11-21T15:58:51.463Z,4.10
2022-11-21T16:01:20.857Z,6.63
2022-11-21T16:03:52.848Z,6.77
2022-11-21T16:06:21.608Z,5.87
2022-11-21T16:08:49.743Z,7.17
2022-11-21T16:11:19.913Z,7.23
2022-11-21T16:13:50.141Z,7.70
2022-11-21T16:16:18.237Z,7.07
2022-11-21T16:18:47.355Z,7.57
2022-11-21T16:21:16.906Z,7.53
2022-11-21T16:23:45.123Z,7.60
2022-11-21T16:26:13.349Z,6.13
2022-11-21T16:28:41.653Z,6.47
2022-11-21T16:31:19.710Z,7.77
2022-11-21T16:33:47.636Z,7.27
2022-11-21T16:36:22.793Z,6.70
2022-11-21T16:38:51.361Z,7.40
2022-11-21T16:41:20.246Z,8.23
2022-11-21T16:43:49.820Z,7.73
2022-11-21T16:46:18.743Z,6.10
2022-11-21T16:48:46.638Z,6.80
2022-11-21T16:51:16.232Z,6.43
2022-11-21T16:53:46.155Z,7.63
2022-11-21T16:56:14.119Z,8.93
2022-11-21T16:58:42.219Z,8.10
2022-11-21T17:01:12.240Z,7.57
2022-11-21T17:03:40.870Z,7.70
2022-11-21T17:06:10.848Z,8.07
2022-11-21T17:08:39.367Z,7.43
2022-11-21T17:11:16.657Z,7.20
2022-11-21T17:13:44.673Z,8.53
2022-11-21T17:16:13.617Z,8.50
2022-11-21T17:18:41.603Z,7.00
2022-11-21T17:21:11.287Z,7.17
2022-11-21T17:23:41.621Z,7.67
2022-11-21T17:26:11.141Z,7.87
2022-11-21T17:28:45.267Z,7.47
2022-11-21T17:31:15.319Z,7.53
2022-11-21T17:33:43.788Z,7.37
2022-11-21T17:36:13.294Z,7.90
2022-11-21T17:38:42.366Z,7.40
2022-11-21T17:41:12.755Z,6.90
2022-11-21T17:43:41.939Z,6.70
2022-11-21T17:46:12.909Z,8.13
2022-11-21T17:48:40.996Z,7.73
2022-11-21T17:51:12.273Z,6.67
2022-11-21T17:53:42.227Z,6.73
2022-11-21T17:56:12.441Z,8.60
2022-11-21T17:58:40.131Z,8.23
2022-11-21T18:01:13.612Z,7.70
2022-11-21T18:03:42.309Z,8.30
2022-11-21T18:06:11.758Z,8.33
2022-11-21T18:08:41.659Z,9.23
2022-11-21T18:11:10.980Z,9.17
2022-11-21T18:13:40.014Z,7.23
2022-11-21T18:16:11.527Z,7.83
2022-11-21T18:18:40.577Z,9.57
2022-11-21T18:21:10.929Z,6.00
2022-11-21T18:23:39.829Z,8.13
2022-11-21T18:26:12.259Z,10.57
2022-11-21T18:28:40.247Z,9.67
2022-11-21T18:31:11.048Z,8.90
2022-11-21T18:33:39.949Z,8.27
2022-11-21T18:36:09.263Z,7.87
2022-11-21T18:38:49.312Z,9.50
2022-11-21T18:41:20.588Z,7.77
2022-11-21T18:43:52.309Z,9.27
2022-11-21T18:46:22.690Z,7.13
2022-11-21T18:49:07.987Z,6.27
2022-11-21T18:51:37.125Z,7.67
2022-11-21T18:54:08.091Z,7.07
2022-11-21T18:56:37.424Z,7.47
2022-11-21T18:59:06.359Z,9.00
2022-11-21T19:01:37.473Z,6.00
2022-11-21T19:04:06.175Z,6.13
2022-11-21T19:06:34.215Z,6.63
2022-11-21T19:09:02.188Z,6.30
2022-11-21T19:11:30.721Z,7.07
2022-11-21T19:14:00.376Z,8.43
2022-11-21T19:16:30.842Z,9.97
2022-11-21T19:19:32.577Z,9.23
2022-11-21T19:21:47.620Z,9.63
2022-11-21T19:24:15.975Z,9.40
2022-11-21T19:26:43.600Z,8.97
2022-11-21T19:29:12.029Z,8.97
2022-11-21T19:31:45.146Z,9.23
2022-11-21T19:34:15.722Z,8.13
2022-11-21T19:36:43.429Z,8.43
2022-11-21T19:39:11.642Z,8.37
2022-11-21T19:41:39.295Z,9.57
2022-11-21T19:44:07.152Z,9.13
2022-11-21T19:46:38.705Z,8.87
2022-11-21T19:49:07.534Z,8.90
2022-11-21T19:51:38.388Z,9.97
2022-11-21T19:54:07.919Z,8.93
2022-11-21T19:56:36.215Z,8.37
2022-11-21T19:59:04.069Z,9.40
2022-11-21T20:01:33.419Z,9.10
2022-11-21T20:04:02.918Z,8.07
2022-11-21T20:06:32.673Z,7.43
2022-11-21T20:09:03.868Z,8.23
2022-11-21T20:11:32.599Z,6.67
2022-11-21T20:14:00.902Z,9.47
2022-11-21T20:16:30.381Z,8.93
2022-11-21T20:18:59.706Z,8.73
2022-11-21T20:21:27.736Z,11.87
2022-11-21T20:23:55.972Z,9.23
2022-11-21T20:26:25.890Z,8.97
2022-11-21T20:28:54.116Z,8.70
2022-11-21T20:31:24.708Z,8.50
2022-11-21T20:33:53.806Z,8.77
2022-11-21T20:36:24.267Z,9.23
2022-11-21T20:38:53.846Z,7.60
2022-11-21T20:41:22.828Z,9.50
2022-11-21T20:46:42.442Z,10.00
2022-11-21T20:49:10.417Z,9.00
2022-11-21T20:54:26.199Z,7.37
2022-11-21T20:56:53.955Z,9.73
2022-11-21T20:59:23.285Z,8.20
2022-11-21T21:01:51.011Z,8.97
2022-11-21T21:04:18.830Z,9.20
2022-11-21T21:06:46.565Z,8.50
2022-11-21T21:09:14.208Z,9.50
2022-11-21T21:11:57.187Z,9.07
2022-11-21T21:14:26.172Z,11.00
2022-11-21T21:16:54.067Z,9.50
2022-11-21T21:19:22.469Z,9.57
2022-11-21T21:21:50.440Z,10.33
2022-11-21T21:24:18.297Z,9.30
2022-11-21T21:26:48.394Z,8.00
2022-11-21T21:29:18.574Z,9.57
2022-11-21T21:31:51.647Z,9.97
2022-11-21T21:34:20.861Z,9.63
2022-11-21T21:36:49.140Z,9.50
2022-11-21T21:39:16.922Z,10.67
2022-11-21T21:41:46.448Z,9.77
2022-11-21T21:44:14.591Z,9.83
2022-11-21T21:46:42.442Z,10.47
2022-11-21T21:49:11.953Z,8.47
2022-11-21T21:51:40.124Z,9.10
2022-11-21T21:54:16.560Z,9.13
2022-11-21T21:56:45.602Z,8.47
2022-11-21T21:59:14.401Z,9.00
2022-11-21T22:01:43.031Z,9.93
2022-11-21T22:04:12.752Z,9.30
2022-11-21T22:06:40.463Z,10.70
2022-11-21T22:09:08.179Z,10.40
2022-11-21T22:11:38.233Z,8.27
2022-11-21T22:14:07.355Z,8.73
2022-11-21T22:16:35.026Z,11.00
2022-11-21T22:19:02.842Z,8.97
2022-11-21T22:21:33.281Z,9.43
2022-11-21T22:24:24.950Z,9.23
2022-11-21T22:26:50.036Z,8.63
2022-11-21T22:29:17.944Z,9.33
2022-11-21T22:31:45.651Z,9.53
2022-11-21T22:34:14.004Z,10.27
2022-11-21T22:36:43.308Z,11.10
2022-11-21T22:39:10.987Z,8.93
2022-11-21T22:41:39.118Z,10.37
2022-11-21T22:44:06.778Z,10.53
2022-11-21T22:46:34.427Z,10.50
2022-11-21T22:49:02.052Z,10.03
2022-11-21T22:51:30.415Z,11.63
2022-11-21T22:53:59.469Z,12.20
2022-11-21T22:56:27.412Z,11.53
2022-11-21T22:58:55.949Z,11.53
2022-11-21T23:01:25.159Z,10.30
2022-11-21T23:03:55.377Z,10.60
2022-11-21T23:06:24.639Z,10.67
2022-11-21T23:08:53.223Z,11.80
2022-11-21T23:11:24.411Z,8.97
2022-11-21T23:13:52.762Z,11.10
2022-11-21T23:16:21.071Z,11.27
2022-11-21T23:18:49.444Z,9.63
2022-11-21T23:21:17.065Z,10.03
2022-11-21T23:23:44.823Z,10.27
2022-11-21T23:26:12.755Z,10.03
2022-11-21T23:28:41.787Z,11.97
2022-11-21T23:31:10.658Z,10.83
2022-11-21T23:33:38.357Z,10.43
2022-11-21T23:36:06.236Z,9.63
2022-11-21T23:38:33.939Z,10.60
2022-11-21T23:41:01.598Z,11.53
2022-11-21T23:43:29.272Z,12.63
2022-11-21T23:45:58.300Z,11.30
2022-11-21T23:48:26.071Z,12.60
2022-11-21T23:50:53.745Z,14.57
2022-11-21T23:53:21.792Z,14.20
2022-11-21T23:55:49.654Z,13.10
2022-11-21T23:58:17.329Z,14.57
